sensor_id;sensor_type;location;lat;lon;timestamp;pressure;altitude;pressure_sealevel;temperature;humidity
60479;BME280;46321;48.398;11.754;2023-03-13T00:01:52;96297.66;;;5.17;84.55
60479;BME280;46321;48.398;11.754;2023-03-13T00:04:18;96286.63;;;5.13;84.43
60479;BME280;46321;48.398;11.754;2023-03-13T00:06:43;96284.25;;;5.20;84.88
60479;BME280;46321;48.398;11.754;2023-03-13T00:09:10;96283.13;;;5.22;84.82
60479;BME280;46321;48.398;11.754;2023-03-13T00:11:36;96278.53;;;5.24;84.78
60479;BME280;46321;48.398;11.754;2023-03-13T00:14:03;96269.31;;;5.20;84.63
60479;BME280;46321;48.398;11.754;2023-03-13T00:16:29;96273.44;;;5.23;84.46
60479;BME280;46321;48.398;11.754;2023-03-13T00:18:55;96262.66;;;5.26;84.05
60479;BME280;46321;48.398;11.754;2023-03-13T00:21:23;96268.44;;;5.30;84.03
60479;BME280;46321;48.398;11.754;2023-03-13T00:23:49;96264.84;;;5.31;83.89
60479;BME280;46321;48.398;11.754;2023-03-13T00:26:17;96262.06;;;5.32;83.40
60479;BME280;46321;48.398;11.754;2023-03-13T00:28:43;96259.59;;;5.31;83.26
60479;BME280;46321;48.398;11.754;2023-03-13T00:31:14;96258.38;;;5.25;83.04
60479;BME280;46321;48.398;11.754;2023-03-13T00:33:42;96259.38;;;5.24;83.13
60479;BME280;46321;48.398;11.754;2023-03-13T00:36:10;96256.88;;;5.22;82.89
60479;BME280;46321;48.398;11.754;2023-03-13T00:38:36;96245.34;;;5.15;82.98
60479;BME280;46321;48.398;11.754;2023-03-13T00:41:08;96241.25;;;5.02;82.98
60479;BME280;46321;48.398;11.754;2023-03-13T00:43:36;96241.84;;;4.96;83.24
60479;BME280;46321;48.398;11.754;2023-03-13T00:46:02;96242.25;;;4.91;83.19
60479;BME280;46321;48.398;11.754;2023-03-13T00:48:27;96248.78;;;4.87;83.52
60479;BME280;46321;48.398;11.754;2023-03-13T00:50:53;96235.56;;;4.79;83.67
60479;BME280;46321;48.398;11.754;2023-03-13T00:53:18;96236.69;;;4.76;83.54
60479;BME280;46321;48.398;11.754;2023-03-13T00:55:55;96237.78;;;4.74;83.83
60479;BME280;46321;48.398;11.754;2023-03-13T00:58:21;96232.28;;;4.67;83.40
60479;BME280;46321;48.398;11.754;2023-03-13T01:00:46;96221.81;;;4.67;83.85
60479;BME280;46321;48.398;11.754;2023-03-13T01:03:12;96224.31;;;4.58;83.57
60479;BME280;46321;48.398;11.754;2023-03-13T01:05:37;96227.22;;;4.55;83.40
60479;BME280;46321;48.398;11.754;2023-03-13T01:08:03;96223.94;;;4.53;83.73
60479;BME280;46321;48.398;11.754;2023-03-13T01:10:28;96230.16;;;4.52;83.58
60479;BME280;46321;48.398;11.754;2023-03-13T01:12:53;96226.03;;;4.50;83.77
60479;BME280;46321;48.398;11.754;2023-03-13T01:15:19;96225.75;;;4.43;84.15
60479;BME280;46321;48.398;11.754;2023-03-13T01:17:44;96216.66;;;4.37;84.41
60479;BME280;46321;48.398;11.754;2023-03-13T01:20:10;96217.66;;;4.36;84.52
60479;BME280;46321;48.398;11.754;2023-03-13T01:22:36;96205.91;;;4.30;84.60
60479;BME280;46321;48.398;11.754;2023-03-13T01:25:01;96209.69;;;4.28;85.00
60479;BME280;46321;48.398;11.754;2023-03-13T01:27:28;96209.53;;;4.29;84.75
60479;BME280;46321;48.398;11.754;2023-03-13T01:29:53;96208.53;;;4.30;84.87
60479;BME280;46321;48.398;11.754;2023-03-13T01:32:18;96208.16;;;4.25;84.68
60479;BME280;46321;48.398;11.754;2023-03-13T01:34:43;96203.59;;;4.27;84.45
60479;BME280;46321;48.398;11.754;2023-03-13T01:37:09;96192.56;;;4.23;84.61
60479;BME280;46321;48.398;11.754;2023-03-13T01:39:34;96194.66;;;4.20;84.39
60479;BME280;46321;48.398;11.754;2023-03-13T01:41:59;96193.00;;;4.19;84.35
60479;BME280;46321;48.398;11.754;2023-03-13T01:44:25;96194.25;;;4.15;84.43
60479;BME280;46321;48.398;11.754;2023-03-13T01:46:51;96195.50;;;4.10;84.69
60479;BME280;46321;48.398;11.754;2023-03-13T01:49:23;96184.50;;;4.07;84.52
60479;BME280;46321;48.398;11.754;2023-03-13T01:52:07;96181.34;;;4.03;84.66
60479;BME280;46321;48.398;11.754;2023-03-13T01:54:39;96172.75;;;4.01;84.42
60479;BME280;46321;48.398;11.754;2023-03-13T01:59:47;96179.56;;;3.94;84.76
60479;BME280;46321;48.398;11.754;2023-03-13T02:02:14;96176.09;;;3.93;84.86
60479;BME280;46321;48.398;11.754;2023-03-13T02:04:44;96172.38;;;3.96;84.98
60479;BME280;46321;48.398;11.754;2023-03-13T02:07:15;96163.84;;;3.94;85.30
60479;BME280;46321;48.398;11.754;2023-03-13T02:09:43;96165.63;;;3.93;85.18
60479;BME280;46321;48.398;11.754;2023-03-13T02:12:36;96161.34;;;3.92;84.90
60479;BME280;46321;48.398;11.754;2023-03-13T02:15:10;96158.97;;;3.99;84.76
60479;BME280;46321;48.398;11.754;2023-03-13T02:17:37;96157.25;;;3.89;84.81
60479;BME280;46321;48.398;11.754;2023-03-13T02:20:03;96155.16;;;3.83;84.98
60479;BME280;46321;48.398;11.754;2023-03-13T02:22:41;96160.97;;;3.77;85.57
60479;BME280;46321;48.398;11.754;2023-03-13T02:27:54;96160.28;;;3.75;85.08
60479;BME280;46321;48.398;11.754;2023-03-13T02:30:21;96155.63;;;3.69;85.29
60479;BME280;46321;48.398;11.754;2023-03-13T02:32:47;96151.31;;;3.67;85.34
60479;BME280;46321;48.398;11.754;2023-03-13T02:35:16;96151.22;;;3.69;85.90
60479;BME280;46321;48.398;11.754;2023-03-13T02:37:43;96165.25;;;3.68;85.64
60479;BME280;46321;48.398;11.754;2023-03-13T02:40:15;96161.94;;;3.66;85.81
60479;BME280;46321;48.398;11.754;2023-03-13T02:42:43;96161.13;;;3.65;85.80
60479;BME280;46321;48.398;11.754;2023-03-13T02:45:13;96161.81;;;3.67;85.57
60479;BME280;46321;48.398;11.754;2023-03-13T02:47:38;96162.94;;;3.65;85.88
60479;BME280;46321;48.398;11.754;2023-03-13T02:50:04;96163.72;;;3.65;85.89
60479;BME280;46321;48.398;11.754;2023-03-13T02:52:32;96160.84;;;3.69;85.71
60479;BME280;46321;48.398;11.754;2023-03-13T02:55:05;96159.88;;;3.70;85.98
60479;BME280;46321;48.398;11.754;2023-03-13T02:57:31;96162.47;;;3.70;85.88
60479;BME280;46321;48.398;11.754;2023-03-13T02:59:58;96161.81;;;3.67;85.83
60479;BME280;46321;48.398;11.754;2023-03-13T03:02:23;96161.53;;;3.71;85.40
60479;BME280;46321;48.398;11.754;2023-03-13T03:04:49;96168.00;;;3.76;85.50
60479;BME280;46321;48.398;11.754;2023-03-13T03:07:14;96168.81;;;3.77;85.29
60479;BME280;46321;48.398;11.754;2023-03-13T03:09:39;96160.59;;;3.72;85.20
60479;BME280;46321;48.398;11.754;2023-03-13T03:12:05;96172.69;;;3.73;85.22
60479;BME280;46321;48.398;11.754;2023-03-13T03:14:30;96167.44;;;3.73;85.65
60479;BME280;46321;48.398;11.754;2023-03-13T03:16:56;96178.91;;;3.72;85.67
60479;BME280;46321;48.398;11.754;2023-03-13T03:19:21;96169.13;;;3.74;85.98
60479;BME280;46321;48.398;11.754;2023-03-13T03:21:46;96168.81;;;3.77;85.90
60479;BME280;46321;48.398;11.754;2023-03-13T03:24:13;96170.34;;;3.80;85.65
60479;BME280;46321;48.398;11.754;2023-03-13T03:26:38;96167.72;;;3.80;85.82
60479;BME280;46321;48.398;11.754;2023-03-13T03:29:04;96168.56;;;3.80;85.76
60479;BME280;46321;48.398;11.754;2023-03-13T03:31:29;96171.16;;;3.80;85.68
60479;BME280;46321;48.398;11.754;2023-03-13T03:33:55;96170.88;;;3.83;85.46
60479;BME280;46321;48.398;11.754;2023-03-13T03:36:21;96173.22;;;3.86;85.27
60479;BME280;46321;48.398;11.754;2023-03-13T03:38:48;96167.44;;;3.83;85.22
60479;BME280;46321;48.398;11.754;2023-03-13T03:41:14;96167.97;;;3.86;84.53
60479;BME280;46321;48.398;11.754;2023-03-13T03:43:40;96170.19;;;3.91;84.28
60479;BME280;46321;48.398;11.754;2023-03-13T03:46:06;96163.00;;;3.93;84.18
60479;BME280;46321;48.398;11.754;2023-03-13T03:48:32;96153.91;;;3.97;83.79
60479;BME280;46321;48.398;11.754;2023-03-13T03:50:57;96159.97;;;3.98;83.84
60479;BME280;46321;48.398;11.754;2023-03-13T03:53:23;96161.06;;;3.95;83.58
60479;BME280;46321;48.398;11.754;2023-03-13T03:55:49;96150.44;;;3.97;83.62
60479;BME280;46321;48.398;11.754;2023-03-13T03:58:14;96151.13;;;3.99;83.25
60479;BME280;46321;48.398;11.754;2023-03-13T04:00:45;96143.28;;;3.99;83.50
60479;BME280;46321;48.398;11.754;2023-03-13T04:03:11;96142.03;;;4.03;83.19
60479;BME280;46321;48.398;11.754;2023-03-13T04:05:37;96127.72;;;3.97;83.36
60479;BME280;46321;48.398;11.754;2023-03-13T04:08:03;96127.44;;;4.00;83.21
60479;BME280;46321;48.398;11.754;2023-03-13T04:10:29;96128.53;;;3.98;83.40
60479;BME280;46321;48.398;11.754;2023-03-13T04:12:54;96121.50;;;3.98;83.42
60479;BME280;46321;48.398;11.754;2023-03-13T04:15:19;96117.66;;;3.93;83.63
60479;BME280;46321;48.398;11.754;2023-03-13T04:17:44;96117.66;;;3.93;83.57
60479;BME280;46321;48.398;11.754;2023-03-13T04:20:10;96112.72;;;3.89;83.64
60479;BME280;46321;48.398;11.754;2023-03-13T04:22:37;96110.22;;;3.88;83.88
60479;BME280;46321;48.398;11.754;2023-03-13T04:25:03;96089.44;;;3.86;83.49
60479;BME280;46321;48.398;11.754;2023-03-13T04:27:28;96093.00;;;3.85;83.59
60479;BME280;46321;48.398;11.754;2023-03-13T04:29:54;96088.75;;;3.84;83.62
60479;BME280;46321;48.398;11.754;2023-03-13T04:32:19;96091.91;;;3.88;83.17
60479;BME280;46321;48.398;11.754;2023-03-13T04:34:44;96085.28;;;3.84;82.92
60479;BME280;46321;48.398;11.754;2023-03-13T04:37:10;96078.00;;;3.87;82.95
60479;BME280;46321;48.398;11.754;2023-03-13T04:39:35;96077.84;;;3.89;82.19
60479;BME280;46321;48.398;11.754;2023-03-13T04:42:00;96072.47;;;3.91;82.18
60479;BME280;46321;48.398;11.754;2023-03-13T04:44:25;96070.91;;;3.98;81.72
60479;BME280;46321;48.398;11.754;2023-03-13T04:46:51;96071.88;;;3.97;81.86
60479;BME280;46321;48.398;11.754;2023-03-13T04:49:16;96070.09;;;3.97;81.63
60479;BME280;46321;48.398;11.754;2023-03-13T04:51:42;96064.69;;;3.99;81.49
60479;BME280;46321;48.398;11.754;2023-03-13T04:54:08;96056.16;;;3.97;81.54
60479;BME280;46321;48.398;11.754;2023-03-13T04:56:33;96061.41;;;3.97;81.78
60479;BME280;46321;48.398;11.754;2023-03-13T04:58:58;96057.66;;;3.99;81.51
60479;BME280;46321;48.398;11.754;2023-03-13T05:01:24;96050.50;;;4.01;81.31
60479;BME280;46321;48.398;11.754;2023-03-13T05:03:49;96046.09;;;4.02;81.81
60479;BME280;46321;48.398;11.754;2023-03-13T05:06:14;96043.31;;;4.04;82.26
60479;BME280;46321;48.398;11.754;2023-03-13T05:08:39;96045.81;;;4.05;81.91
60479;BME280;46321;48.398;11.754;2023-03-13T05:11:05;96047.59;;;4.05;81.94
60479;BME280;46321;48.398;11.754;2023-03-13T05:13:30;96047.44;;;4.06;81.61
60479;BME280;46321;48.398;11.754;2023-03-13T05:15:56;96047.16;;;4.09;81.73
60479;BME280;46321;48.398;11.754;2023-03-13T05:18:21;96043.56;;;4.10;81.63
60479;BME280;46321;48.398;11.754;2023-03-13T05:20:46;96041.09;;;4.09;82.26
60479;BME280;46321;48.398;11.754;2023-03-13T05:23:12;96041.81;;;4.01;81.40
60479;BME280;46321;48.398;11.754;2023-03-13T05:25:37;96043.88;;;4.07;81.76
60479;BME280;46321;48.398;11.754;2023-03-13T05:28:02;96037.38;;;4.11;81.59
60479;BME280;46321;48.398;11.754;2023-03-13T05:30:27;96039.31;;;4.09;80.94
60479;BME280;46321;48.398;11.754;2023-03-13T05:32:53;96044.91;;;4.15;80.97
60479;BME280;46321;48.398;11.754;2023-03-13T05:35:18;96023.09;;;4.24;80.88
60479;BME280;46321;48.398;11.754;2023-03-13T05:37:43;96018.66;;;4.24;81.54
60479;BME280;46321;48.398;11.754;2023-03-13T05:40:11;96026.53;;;4.24;81.17
60479;BME280;46321;48.398;11.754;2023-03-13T05:42:37;96024.75;;;4.25;80.78
60479;BME280;46321;48.398;11.754;2023-03-13T05:45:03;96021.00;;;4.28;80.38
60479;BME280;46321;48.398;11.754;2023-03-13T05:47:28;96016.13;;;4.33;80.31
60479;BME280;46321;48.398;11.754;2023-03-13T05:49:53;96004.25;;;4.39;79.56
60479;BME280;46321;48.398;11.754;2023-03-13T05:52:18;96001.03;;;4.45;79.95
60479;BME280;46321;48.398;11.754;2023-03-13T05:54:44;95990.38;;;4.46;80.03
60479;BME280;46321;48.398;11.754;2023-03-13T05:57:09;95957.66;;;4.51;80.75
60479;BME280;46321;48.398;11.754;2023-03-13T05:59:34;96009.72;;;4.45;80.65
60479;BME280;46321;48.398;11.754;2023-03-13T06:02:00;96007.19;;;4.54;81.10
60479;BME280;46321;48.398;11.754;2023-03-13T06:04:25;96001.66;;;4.57;80.83
60479;BME280;46321;48.398;11.754;2023-03-13T06:06:50;95975.63;;;4.64;80.84
60479;BME280;46321;48.398;11.754;2023-03-13T06:09:16;95979.75;;;4.66;80.75
60479;BME280;46321;48.398;11.754;2023-03-13T06:11:41;95992.72;;;4.68;79.84
60479;BME280;46321;48.398;11.754;2023-03-13T06:14:06;95972.78;;;4.75;79.37
60479;BME280;46321;48.398;11.754;2023-03-13T06:16:32;95974.66;;;4.83;79.52
60479;BME280;46321;48.398;11.754;2023-03-13T06:18:58;95982.06;;;4.88;78.34
60479;BME280;46321;48.398;11.754;2023-03-13T06:21:23;95989.78;;;4.89;78.28
60479;BME280;46321;48.398;11.754;2023-03-13T06:23:48;95975.09;;;4.97;77.96
60479;BME280;46321;48.398;11.754;2023-03-13T06:26:14;95980.84;;;5.00;77.46
60479;BME280;46321;48.398;11.754;2023-03-13T06:28:39;95986.09;;;5.00;77.70
60479;BME280;46321;48.398;11.754;2023-03-13T06:31:05;95977.94;;;5.03;77.08
60479;BME280;46321;48.398;11.754;2023-03-13T06:33:31;95964.34;;;5.08;77.24
60479;BME280;46321;48.398;11.754;2023-03-13T06:35:56;95957.00;;;5.12;76.02
60479;BME280;46321;48.398;11.754;2023-03-13T06:38:24;95964.91;;;5.20;76.01
60479;BME280;46321;48.398;11.754;2023-03-13T06:40:51;95950.19;;;5.27;76.03
60479;BME280;46321;48.398;11.754;2023-03-13T06:43:16;95952.38;;;5.32;75.88
60479;BME280;46321;48.398;11.754;2023-03-13T06:45:42;95965.50;;;5.32;75.68
60479;BME280;46321;48.398;11.754;2023-03-13T06:48:07;95957.66;;;5.41;75.49
60479;BME280;46321;48.398;11.754;2023-03-13T06:50:36;95955.69;;;5.43;75.24
60479;BME280;46321;48.398;11.754;2023-03-13T06:53:01;95957.69;;;5.49;74.97
60479;BME280;46321;48.398;11.754;2023-03-13T06:55:27;95952.97;;;5.53;74.81
60479;BME280;46321;48.398;11.754;2023-03-13T06:57:52;95956.44;;;5.61;75.10
60479;BME280;46321;48.398;11.754;2023-03-13T07:00:18;95960.72;;;5.63;74.85
60479;BME280;46321;48.398;11.754;2023-03-13T07:02:44;95950.72;;;5.66;74.79
60479;BME280;46321;48.398;11.754;2023-03-13T07:05:09;95951.41;;;5.68;74.86
60479;BME280;46321;48.398;11.754;2023-03-13T07:07:34;95950.25;;;5.71;75.00
60479;BME280;46321;48.398;11.754;2023-03-13T07:10:00;95952.09;;;5.79;74.61
60479;BME280;46321;48.398;11.754;2023-03-13T07:12:25;95942.75;;;5.84;75.41
60479;BME280;46321;48.398;11.754;2023-03-13T07:14:51;95936.50;;;5.86;75.11
60479;BME280;46321;48.398;11.754;2023-03-13T07:17:16;95935.38;;;5.88;75.11
60479;BME280;46321;48.398;11.754;2023-03-13T07:19:41;95936.41;;;5.95;75.28
60479;BME280;46321;48.398;11.754;2023-03-13T07:22:07;95950.84;;;6.00;75.06
60479;BME280;46321;48.398;11.754;2023-03-13T07:24:32;95952.19;;;6.04;75.19
60479;BME280;46321;48.398;11.754;2023-03-13T07:26:57;95957.06;;;5.99;75.13
60479;BME280;46321;48.398;11.754;2023-03-13T07:29:22;95947.59;;;6.06;74.87
60479;BME280;46321;48.398;11.754;2023-03-13T07:31:48;95946.78;;;6.14;74.72
60479;BME280;46321;48.398;11.754;2023-03-13T07:34:13;95953.22;;;6.20;74.80
60479;BME280;46321;48.398;11.754;2023-03-13T07:36:38;95961.47;;;6.25;75.00
60479;BME280;46321;48.398;11.754;2023-03-13T07:39:05;95958.50;;;6.28;74.72
60479;BME280;46321;48.398;11.754;2023-03-13T07:41:30;95960.47;;;6.34;74.46
60479;BME280;46321;48.398;11.754;2023-03-13T07:43:56;95958.19;;;6.39;74.80
60479;BME280;46321;48.398;11.754;2023-03-13T07:46:21;95961.31;;;6.43;75.07
60479;BME280;46321;48.398;11.754;2023-03-13T07:48:47;95955.56;;;6.48;74.91
60479;BME280;46321;48.398;11.754;2023-03-13T07:51:18;95951.63;;;6.52;75.08
60479;BME280;46321;48.398;11.754;2023-03-13T07:53:44;95943.75;;;6.52;75.85
60479;BME280;46321;48.398;11.754;2023-03-13T07:56:21;95946.22;;;6.62;75.69
60479;BME280;46321;48.398;11.754;2023-03-13T07:58:48;95936.03;;;6.59;76.20
60479;BME280;46321;48.398;11.754;2023-03-13T08:01:22;95937.38;;;6.63;76.55
60479;BME280;46321;48.398;11.754;2023-03-13T08:03:47;95931.94;;;6.64;77.30
60479;BME280;46321;48.398;11.754;2023-03-13T08:06:21;95922.88;;;6.75;77.38
60479;BME280;46321;48.398;11.754;2023-03-13T08:08:50;95926.34;;;6.76;77.32
60479;BME280;46321;48.398;11.754;2023-03-13T08:11:18;95925.50;;;6.92;77.29
60479;BME280;46321;48.398;11.754;2023-03-13T08:13:44;95926.16;;;7.03;77.43
60479;BME280;46321;48.398;11.754;2023-03-13T08:16:17;95934.19;;;7.18;77.06
60479;BME280;46321;48.398;11.754;2023-03-13T08:18:48;95932.03;;;7.30;76.15
60479;BME280;46321;48.398;11.754;2023-03-13T08:21:25;95933.47;;;7.41;76.21
60479;BME280;46321;48.398;11.754;2023-03-13T08:23:52;95932.63;;;7.49;75.58
60479;BME280;46321;48.398;11.754;2023-03-13T08:26:19;95931.16;;;7.54;74.93
60479;BME280;46321;48.398;11.754;2023-03-13T08:28:46;95934.38;;;7.65;75.63
60479;BME280;46321;48.398;11.754;2023-03-13T08:31:14;95929.41;;;7.78;74.80
60479;BME280;46321;48.398;11.754;2023-03-13T08:33:41;95927.09;;;7.84;75.54
60479;BME280;46321;48.398;11.754;2023-03-13T08:38:43;95921.91;;;8.22;74.56
60479;BME280;46321;48.398;11.754;2023-03-13T08:41:10;95930.72;;;8.38;73.24
60479;BME280;46321;48.398;11.754;2023-03-13T08:43:36;95936.22;;;8.52;72.56
60479;BME280;46321;48.398;11.754;2023-03-13T08:46:01;95927.81;;;8.80;71.41
60479;BME280;46321;48.398;11.754;2023-03-13T08:48:26;95914.59;;;9.64;74.18
60479;BME280;46321;48.398;11.754;2023-03-13T08:51:05;95917.06;;;10.18;69.96
60479;BME280;46321;48.398;11.754;2023-03-13T08:53:32;95922.09;;;10.50;67.34
60479;BME280;46321;48.398;11.754;2023-03-13T08:55:57;95915.94;;;11.51;66.30
60479;BME280;46321;48.398;11.754;2023-03-13T08:58:23;95910.34;;;12.23;63.97
60479;BME280;46321;48.398;11.754;2023-03-13T09:00:48;95899.59;;;12.73;58.70
60479;BME280;46321;48.398;11.754;2023-03-13T09:03:14;95898.78;;;12.58;58.39
60479;BME280;46321;48.398;11.754;2023-03-13T09:05:39;95895.50;;;13.11;59.43
60479;BME280;46321;48.398;11.754;2023-03-13T09:08:05;95897.06;;;13.66;59.36
60479;BME280;46321;48.398;11.754;2023-03-13T09:10:33;95894.09;;;14.34;58.00
60479;BME280;46321;48.398;11.754;2023-03-13T09:12:59;95886.78;;;15.13;54.42
60479;BME280;46321;48.398;11.754;2023-03-13T09:15:24;95881.78;;;15.99;51.44
60479;BME280;46321;48.398;11.754;2023-03-13T09:17:50;95867.75;;;16.89;51.24
60479;BME280;46321;48.398;11.754;2023-03-13T09:20:15;95884.16;;;17.53;48.67
60479;BME280;46321;48.398;11.754;2023-03-13T09:22:43;95876.44;;;18.22;46.48
60479;BME280;46321;48.398;11.754;2023-03-13T09:25:08;95874.44;;;18.17;45.37
60479;BME280;46321;48.398;11.754;2023-03-13T09:27:33;95866.13;;;17.60;46.00
60479;BME280;46321;48.398;11.754;2023-03-13T09:29:59;95867.22;;;17.35;46.54
60479;BME280;46321;48.398;11.754;2023-03-13T09:32:24;95871.53;;;17.24;48.21
60479;BME280;46321;48.398;11.754;2023-03-13T09:34:49;95871.88;;;17.40;47.08
60479;BME280;46321;48.398;11.754;2023-03-13T09:37:15;95858.00;;;17.07;46.77
60479;BME280;46321;48.398;11.754;2023-03-13T09:39:40;95866.09;;;16.64;47.27
60479;BME280;46321;48.398;11.754;2023-03-13T09:42:12;95853.06;;;16.56;48.60
60479;BME280;46321;48.398;11.754;2023-03-13T09:44:49;95849.94;;;16.59;47.88
60479;BME280;46321;48.398;11.754;2023-03-13T09:47:30;95834.06;;;16.64;49.14
60479;BME280;46321;48.398;11.754;2023-03-13T09:50:10;95841.69;;;17.57;48.32
60479;BME280;46321;48.398;11.754;2023-03-13T09:52:38;95836.63;;;18.77;45.63
60479;BME280;46321;48.398;11.754;2023-03-13T09:55:23;95827.81;;;19.56;43.38
60479;BME280;46321;48.398;11.754;2023-03-13T09:57:53;95819.84;;;19.84;40.75
60479;BME280;46321;48.398;11.754;2023-03-13T10:00:30;95819.66;;;19.68;40.89
60479;BME280;46321;48.398;11.754;2023-03-13T10:05:32;95810.38;;;20.04;40.49
60479;BME280;46321;48.398;11.754;2023-03-13T10:08:07;95820.22;;;20.21;40.43
60479;BME280;46321;48.398;11.754;2023-03-13T10:13:18;95806.59;;;19.32;39.10
60479;BME280;46321;48.398;11.754;2023-03-13T10:15:50;95791.13;;;20.12;39.32
60479;BME280;46321;48.398;11.754;2023-03-13T10:18:20;95798.50;;;20.93;37.91
60479;BME280;46321;48.398;11.754;2023-03-13T10:20:49;95790.84;;;21.13;36.77
60479;BME280;46321;48.398;11.754;2023-03-13T10:23:24;95794.53;;;21.50;36.65
60479;BME280;46321;48.398;11.754;2023-03-13T10:25:51;95788.44;;;21.16;35.81
60479;BME280;46321;48.398;11.754;2023-03-13T10:28:17;95788.50;;;20.18;37.40
60479;BME280;46321;48.398;11.754;2023-03-13T10:31:26;95789.22;;;19.85;37.99
60479;BME280;46321;48.398;11.754;2023-03-13T10:34:09;95788.81;;;20.21;37.20
60479;BME280;46321;48.398;11.754;2023-03-13T10:36:43;95789.59;;;20.88;36.19
60479;BME280;46321;48.398;11.754;2023-03-13T10:39:21;95781.22;;;21.97;35.53
60479;BME280;46321;48.398;11.754;2023-03-13T10:41:48;95778.31;;;22.35;34.11
60479;BME280;46321;48.398;11.754;2023-03-13T10:44:19;95779.41;;;22.55;34.51
60479;BME280;46321;48.398;11.754;2023-03-13T10:46:46;95766.63;;;21.77;35.08
60479;BME280;46321;48.398;11.754;2023-03-13T10:49:23;95754.38;;;21.43;35.63
60479;BME280;46321;48.398;11.754;2023-03-13T10:51:53;95769.22;;;20.59;36.83
60479;BME280;46321;48.398;11.754;2023-03-13T10:56:49;95763.91;;;20.31;37.61
60479;BME280;46321;48.398;11.754;2023-03-13T10:59:23;95773.72;;;20.48;37.37
60479;BME280;46321;48.398;11.754;2023-03-13T11:01:50;95760.94;;;20.66;38.23
60479;BME280;46321;48.398;11.754;2023-03-13T11:04:27;95762.09;;;21.19;37.19
60479;BME280;46321;48.398;11.754;2023-03-13T11:07:01;95748.00;;;21.76;36.58
60479;BME280;46321;48.398;11.754;2023-03-13T11:09:26;95741.06;;;21.95;35.40
60479;BME280;46321;48.398;11.754;2023-03-13T11:12:02;95738.41;;;22.79;34.57
60479;BME280;46321;48.398;11.754;2023-03-13T11:14:27;95740.84;;;22.75;34.08
60479;BME280;46321;48.398;11.754;2023-03-13T11:16:55;95729.44;;;23.76;33.25
60479;BME280;46321;48.398;11.754;2023-03-13T11:22:14;95740.66;;;24.64;30.56
60479;BME280;46321;48.398;11.754;2023-03-13T11:24:59;95736.16;;;24.84;30.67
60479;BME280;46321;48.398;11.754;2023-03-13T11:27:51;95728.47;;;25.21;30.01
60479;BME280;46321;48.398;11.754;2023-03-13T11:30:48;95721.81;;;25.13;30.96
60479;BME280;46321;48.398;11.754;2023-03-13T11:33:35;95713.69;;;26.15;29.33
60479;BME280;46321;48.398;11.754;2023-03-13T11:36:16;95710.03;;;25.23;29.90
60479;BME280;46321;48.398;11.754;2023-03-13T11:38:48;95710.19;;;24.83;30.75
60479;BME280;46321;48.398;11.754;2023-03-13T11:41:25;95717.78;;;23.81;32.82
60479;BME280;46321;48.398;11.754;2023-03-13T11:50:14;95694.19;;;21.91;36.41
60479;BME280;46321;48.398;11.754;2023-03-13T11:53:13;95691.72;;;21.58;36.45
60479;BME280;46321;48.398;11.754;2023-03-13T11:55:55;95694.78;;;21.03;37.48
60479;BME280;46321;48.398;11.754;2023-03-13T12:01:26;95686.59;;;20.44;38.80
60479;BME280;46321;48.398;11.754;2023-03-13T12:03:58;95684.19;;;20.42;38.80
60479;BME280;46321;48.398;11.754;2023-03-13T12:09:15;95667.75;;;20.06;39.41
60479;BME280;46321;48.398;11.754;2023-03-13T12:12:04;95666.09;;;19.99;40.43
60479;BME280;46321;48.398;11.754;2023-03-13T12:14:42;95666.53;;;20.13;40.02
60479;BME280;46321;48.398;11.754;2023-03-13T12:17:39;95671.22;;;20.01;39.54
60479;BME280;46321;48.398;11.754;2023-03-13T12:20:24;95665.78;;;19.90;40.01
60479;BME280;46321;48.398;11.754;2023-03-13T12:23:16;95669.81;;;19.93;40.19
60479;BME280;46321;48.398;11.754;2023-03-13T12:28:30;95653.59;;;20.10;39.71
60479;BME280;46321;48.398;11.754;2023-03-13T12:31:13;95644.63;;;19.99;39.80
60479;BME280;46321;48.398;11.754;2023-03-13T12:33:44;95623.03;;;19.84;39.95
60479;BME280;46321;48.398;11.754;2023-03-13T12:36:25;95631.38;;;19.87;40.55
60479;BME280;46321;48.398;11.754;2023-03-13T12:39:21;95628.84;;;20.08;39.90
60479;BME280;46321;48.398;11.754;2023-03-13T12:42:08;95629.81;;;20.30;40.70
60479;BME280;46321;48.398;11.754;2023-03-13T12:44:34;95609.44;;;20.34;39.44
60479;BME280;46321;48.398;11.754;2023-03-13T12:47:09;95606.53;;;20.41;40.10
60479;BME280;46321;48.398;11.754;2023-03-13T13:01:01;95575.72;;;19.77;39.41
60479;BME280;46321;48.398;11.754;2023-03-13T13:03:32;95580.09;;;19.56;40.29
60479;BME280;46321;48.398;11.754;2023-03-13T13:06:10;95578.31;;;19.34;40.20
60479;BME280;46321;48.398;11.754;2023-03-13T13:08:46;95565.97;;;19.33;41.49
60479;BME280;46321;48.398;11.754;2023-03-13T13:16:49;95549.97;;;19.43;41.32
60479;BME280;46321;48.398;11.754;2023-03-13T13:24:55;95542.47;;;19.45;40.93
60479;BME280;46321;48.398;11.754;2023-03-13T13:27:44;95551.69;;;19.27;40.40
60479;BME280;46321;48.398;11.754;2023-03-13T13:32:46;95552.00;;;18.81;41.02
60479;BME280;46321;48.398;11.754;2023-03-13T13:37:38;95526.38;;;18.90;41.15
60479;BME280;46321;48.398;11.754;2023-03-13T13:53:42;95498.09;;;19.05;41.36
60479;BME280;46321;48.398;11.754;2023-03-13T13:58:56;95475.69;;;19.16;41.42
60479;BME280;46321;48.398;11.754;2023-03-13T14:01:23;95483.81;;;19.21;41.17
60479;BME280;46321;48.398;11.754;2023-03-13T14:03:50;95464.59;;;19.07;41.57
60479;BME280;46321;48.398;11.754;2023-03-13T14:06:18;95471.03;;;19.06;41.91
60479;BME280;46321;48.398;11.754;2023-03-13T14:08:47;95458.09;;;18.98;42.21
60479;BME280;46321;48.398;11.754;2023-03-13T14:13:38;95450.31;;;18.96;42.46
60479;BME280;46321;48.398;11.754;2023-03-13T14:16:23;95447.28;;;18.87;42.29
60479;BME280;46321;48.398;11.754;2023-03-13T14:18:49;95446.25;;;18.94;42.27
60479;BME280;46321;48.398;11.754;2023-03-13T14:21:20;95448.66;;;18.90;42.55
60479;BME280;46321;48.398;11.754;2023-03-13T14:23:46;95436.91;;;18.69;42.51
60479;BME280;46321;48.398;11.754;2023-03-13T14:28:48;95412.78;;;18.69;43.33